sensor_id;sensor_type;location;lat;lon;timestamp;P1;durP1;ratioP1;P2;durP2;ratioP2
28848;SDS011;15981;43.292;-2.888;2022-08-26T00:00:45;5.10;;;2.00;;
28848;SDS011;15981;43.292;-2.888;2022-08-26T00:03:11;4.82;;;1.80;;
28848;SDS011;15981;43.292;-2.888;2022-08-26T00:05:38;5.00;;;2.13;;
28848;SDS011;15981;43.292;-2.888;2022-08-26T00:08:04;5.45;;;1.92;;
28848;SDS011;15981;43.292;-2.888;2022-08-26T00:10:30;5.00;;;2.20;;
28848;SDS011;15981;43.292;-2.888;2022-08-26T00:12:56;4.80;;;2.10;;
28848;SDS011;15981;43.292;-2.888;2022-08-26T00:15:22;4.95;;;2.30;;
28848;SDS011;15981;43.292;-2.888;2022-08-26T00:17:49;4.93;;;2.10;;
28848;SDS011;15981;43.292;-2.888;2022-08-26T00:20:16;3.80;;;1.97;;
28848;SDS011;15981;43.292;-2.888;2022-08-26T00:22:42;2.95;;;1.60;;
28848;SDS011;15981;43.292;-2.888;2022-08-26T00:25:08;4.60;;;1.70;;
28848;SDS011;15981;43.292;-2.888;2022-08-26T00:27:34;4.47;;;1.83;;
28848;SDS011;15981;43.292;-2.888;2022-08-26T00:30:00;3.13;;;1.60;;
28848;SDS011;15981;43.292;-2.888;2022-08-26T00:32:26;3.60;;;1.75;;
28848;SDS011;15981;43.292;-2.888;2022-08-26T00:34:52;5.07;;;1.92;;
28848;SDS011;15981;43.292;-2.888;2022-08-26T00:37:18;3.77;;;1.90;;
28848;SDS011;15981;43.292;-2.888;2022-08-26T00:39:44;3.77;;;1.90;;
28848;SDS011;15981;43.292;-2.888;2022-08-26T00:42:10;3.60;;;2.00;;
28848;SDS011;15981;43.292;-2.888;2022-08-26T00:44:35;3.38;;;2.10;;
28848;SDS011;15981;43.292;-2.888;2022-08-26T00:47:02;3.67;;;2.10;;
28848;SDS011;15981;43.292;-2.888;2022-08-26T00:51:57;2.77;;;2.07;;
28848;SDS011;15981;43.292;-2.888;2022-08-26T00:54:26;4.40;;;2.38;;
28848;SDS011;15981;43.292;-2.888;2022-08-26T00:59:18;3.60;;;2.00;;
28848;SDS011;15981;43.292;-2.888;2022-08-26T01:01:44;4.65;;;2.42;;
28848;SDS011;15981;43.292;-2.888;2022-08-26T01:04:10;4.80;;;2.40;;
28848;SDS011;15981;43.292;-2.888;2022-08-26T01:06:36;3.42;;;2.15;;
28848;SDS011;15981;43.292;-2.888;2022-08-26T01:09:02;3.40;;;2.22;;
28848;SDS011;15981;43.292;-2.888;2022-08-26T01:11:28;3.13;;;2.10;;
28848;SDS011;15981;43.292;-2.888;2022-08-26T01:13:55;4.30;;;2.50;;
28848;SDS011;15981;43.292;-2.888;2022-08-26T01:16:22;6.15;;;2.65;;
28848;SDS011;15981;43.292;-2.888;2022-08-26T01:18:50;5.90;;;2.63;;
28848;SDS011;15981;43.292;-2.888;2022-08-26T01:23:47;5.05;;;2.60;;
28848;SDS011;15981;43.292;-2.888;2022-08-26T01:26:15;4.53;;;2.50;;
28848;SDS011;15981;43.292;-2.888;2022-08-26T01:28:42;5.63;;;2.53;;
28848;SDS011;15981;43.292;-2.888;2022-08-26T01:31:10;3.47;;;2.55;;
28848;SDS011;15981;43.292;-2.888;2022-08-26T01:34:00;5.18;;;2.45;;
28848;SDS011;15981;43.292;-2.888;2022-08-26T01:36:24;3.33;;;2.10;;
28848;SDS011;15981;43.292;-2.888;2022-08-26T01:38:50;4.40;;;2.30;;
28848;SDS011;15981;43.292;-2.888;2022-08-26T01:41:15;5.03;;;2.20;;
28848;SDS011;15981;43.292;-2.888;2022-08-26T01:43:42;2.90;;;1.90;;
28848;SDS011;15981;43.292;-2.888;2022-08-26T01:46:09;3.83;;;1.95;;
28848;SDS011;15981;43.292;-2.888;2022-08-26T01:48:35;2.53;;;1.67;;
28848;SDS011;15981;43.292;-2.888;2022-08-26T01:51:02;3.85;;;2.00;;
28848;SDS011;15981;43.292;-2.888;2022-08-26T01:53:29;3.42;;;1.58;;
28848;SDS011;15981;43.292;-2.888;2022-08-26T01:55:56;4.82;;;1.55;;
28848;SDS011;15981;43.292;-2.888;2022-08-26T01:58:34;3.10;;;1.90;;
28848;SDS011;15981;43.292;-2.888;2022-08-26T02:01:01;3.58;;;1.70;;
28848;SDS011;15981;43.292;-2.888;2022-08-26T02:03:27;3.50;;;1.80;;
28848;SDS011;15981;43.292;-2.888;2022-08-26T02:05:54;3.42;;;1.30;;
28848;SDS011;15981;43.292;-2.888;2022-08-26T02:08:22;3.30;;;1.43;;
28848;SDS011;15981;43.292;-2.888;2022-08-26T02:10:49;4.00;;;1.60;;
28848;SDS011;15981;43.292;-2.888;2022-08-26T02:13:15;2.65;;;1.50;;
28848;SDS011;15981;43.292;-2.888;2022-08-26T02:15:41;3.23;;;1.60;;
28848;SDS011;15981;43.292;-2.888;2022-08-26T02:18:08;4.57;;;1.67;;
28848;SDS011;15981;43.292;-2.888;2022-08-26T02:20:34;2.38;;;1.75;;
28848;SDS011;15981;43.292;-2.888;2022-08-26T02:23:00;3.00;;;1.60;;
28848;SDS011;15981;43.292;-2.888;2022-08-26T02:25:34;4.07;;;1.50;;
28848;SDS011;15981;43.292;-2.888;2022-08-26T02:28:03;3.10;;;1.35;;
28848;SDS011;15981;43.292;-2.888;2022-08-26T02:30:29;3.00;;;1.30;;
28848;SDS011;15981;43.292;-2.888;2022-08-26T02:32:59;2.08;;;1.42;;
28848;SDS011;15981;43.292;-2.888;2022-08-26T02:35:28;3.95;;;1.58;;
28848;SDS011;15981;43.292;-2.888;2022-08-26T02:37:54;3.65;;;1.48;;
28848;SDS011;15981;43.292;-2.888;2022-08-26T02:40:22;2.70;;;1.55;;
28848;SDS011;15981;43.292;-2.888;2022-08-26T02:42:48;2.80;;;1.60;;
28848;SDS011;15981;43.292;-2.888;2022-08-26T02:45:14;3.00;;;1.47;;
28848;SDS011;15981;43.292;-2.888;2022-08-26T02:47:40;3.53;;;1.65;;
28848;SDS011;15981;43.292;-2.888;2022-08-26T02:50:05;4.53;;;1.60;;
28848;SDS011;15981;43.292;-2.888;2022-08-26T02:52:31;3.67;;;1.63;;
28848;SDS011;15981;43.292;-2.888;2022-08-26T02:54:57;2.78;;;1.80;;
28848;SDS011;15981;43.292;-2.888;2022-08-26T02:57:23;3.20;;;1.80;;
28848;SDS011;15981;43.292;-2.888;2022-08-26T02:59:49;3.22;;;1.77;;
28848;SDS011;15981;43.292;-2.888;2022-08-26T03:02:14;3.27;;;1.70;;
28848;SDS011;15981;43.292;-2.888;2022-08-26T03:04:41;4.43;;;1.95;;
28848;SDS011;15981;43.292;-2.888;2022-08-26T03:07:07;3.67;;;1.87;;
28848;SDS011;15981;43.292;-2.888;2022-08-26T03:09:33;2.67;;;1.60;;
28848;SDS011;15981;43.292;-2.888;2022-08-26T03:11:59;3.53;;;1.98;;
28848;SDS011;15981;43.292;-2.888;2022-08-26T03:14:25;4.03;;;1.80;;
28848;SDS011;15981;43.292;-2.888;2022-08-26T03:16:51;4.07;;;1.92;;
28848;SDS011;15981;43.292;-2.888;2022-08-26T03:19:19;4.65;;;2.03;;
28848;SDS011;15981;43.292;-2.888;2022-08-26T03:21:45;3.20;;;1.97;;
28848;SDS011;15981;43.292;-2.888;2022-08-26T03:24:11;5.65;;;2.30;;
28848;SDS011;15981;43.292;-2.888;2022-08-26T03:26:37;6.35;;;2.30;;
28848;SDS011;15981;43.292;-2.888;2022-08-26T03:29:03;4.17;;;2.00;;
28848;SDS011;15981;43.292;-2.888;2022-08-26T03:31:47;4.10;;;2.30;;
28848;SDS011;15981;43.292;-2.888;2022-08-26T03:34:13;3.13;;;1.80;;
28848;SDS011;15981;43.292;-2.888;2022-08-26T03:36:39;4.68;;;2.13;;
28848;SDS011;15981;43.292;-2.888;2022-08-26T03:39:05;5.15;;;2.00;;
28848;SDS011;15981;43.292;-2.888;2022-08-26T03:41:32;5.20;;;2.35;;
28848;SDS011;15981;43.292;-2.888;2022-08-26T03:43:58;5.28;;;1.95;;
28848;SDS011;15981;43.292;-2.888;2022-08-26T03:46:24;5.20;;;2.57;;
28848;SDS011;15981;43.292;-2.888;2022-08-26T03:48:49;3.85;;;2.10;;
28848;SDS011;15981;43.292;-2.888;2022-08-26T03:51:16;4.78;;;2.25;;
28848;SDS011;15981;43.292;-2.888;2022-08-26T03:53:43;3.53;;;1.90;;
28848;SDS011;15981;43.292;-2.888;2022-08-26T03:56:09;6.13;;;2.40;;
28848;SDS011;15981;43.292;-2.888;2022-08-26T03:58:36;4.10;;;2.10;;
28848;SDS011;15981;43.292;-2.888;2022-08-26T04:01:02;5.13;;;2.43;;
28848;SDS011;15981;43.292;-2.888;2022-08-26T04:03:28;5.65;;;2.30;;
28848;SDS011;15981;43.292;-2.888;2022-08-26T04:06:13;5.43;;;2.70;;
28848;SDS011;15981;43.292;-2.888;2022-08-26T04:08:39;5.47;;;2.50;;
28848;SDS011;15981;43.292;-2.888;2022-08-26T04:11:05;6.85;;;2.92;;
28848;SDS011;15981;43.292;-2.888;2022-08-26T04:13:30;5.07;;;2.77;;
28848;SDS011;15981;43.292;-2.888;2022-08-26T04:15:56;6.35;;;2.70;;
28848;SDS011;15981;43.292;-2.888;2022-08-26T04:18:22;4.80;;;2.00;;
28848;SDS011;15981;43.292;-2.888;2022-08-26T04:20:48;7.03;;;2.50;;
28848;SDS011;15981;43.292;-2.888;2022-08-26T04:23:15;4.45;;;2.30;;
28848;SDS011;15981;43.292;-2.888;2022-08-26T04:25:41;4.85;;;2.35;;
28848;SDS011;15981;43.292;-2.888;2022-08-26T04:28:07;3.45;;;2.33;;
28848;SDS011;15981;43.292;-2.888;2022-08-26T04:30:36;3.92;;;2.00;;
28848;SDS011;15981;43.292;-2.888;2022-08-26T04:33:02;4.07;;;2.30;;
28848;SDS011;15981;43.292;-2.888;2022-08-26T04:35:29;3.53;;;2.30;;
28848;SDS011;15981;43.292;-2.888;2022-08-26T04:37:55;4.78;;;2.35;;
28848;SDS011;15981;43.292;-2.888;2022-08-26T04:40:21;5.10;;;2.40;;
28848;SDS011;15981;43.292;-2.888;2022-08-26T04:42:47;4.03;;;2.42;;
28848;SDS011;15981;43.292;-2.888;2022-08-26T04:45:12;4.60;;;2.58;;
28848;SDS011;15981;43.292;-2.888;2022-08-26T04:47:38;4.72;;;2.60;;
28848;SDS011;15981;43.292;-2.888;2022-08-26T04:50:05;4.40;;;2.58;;
28848;SDS011;15981;43.292;-2.888;2022-08-26T04:52:31;6.03;;;2.40;;
28848;SDS011;15981;43.292;-2.888;2022-08-26T04:54:57;5.45;;;2.80;;
28848;SDS011;15981;43.292;-2.888;2022-08-26T04:57:23;4.32;;;2.75;;
28848;SDS011;15981;43.292;-2.888;2022-08-26T04:59:49;6.63;;;2.77;;
28848;SDS011;15981;43.292;-2.888;2022-08-26T05:02:14;6.05;;;2.70;;
28848;SDS011;15981;43.292;-2.888;2022-08-26T05:04:40;6.57;;;2.80;;
28848;SDS011;15981;43.292;-2.888;2022-08-26T05:07:08;5.40;;;2.65;;
28848;SDS011;15981;43.292;-2.888;2022-08-26T05:09:35;7.55;;;2.97;;
28848;SDS011;15981;43.292;-2.888;2022-08-26T05:12:01;5.85;;;3.15;;
28848;SDS011;15981;43.292;-2.888;2022-08-26T05:14:27;6.35;;;3.13;;
28848;SDS011;15981;43.292;-2.888;2022-08-26T05:16:53;6.57;;;3.70;;
28848;SDS011;15981;43.292;-2.888;2022-08-26T05:19:19;4.97;;;3.22;;
28848;SDS011;15981;43.292;-2.888;2022-08-26T05:21:45;7.07;;;3.42;;
28848;SDS011;15981;43.292;-2.888;2022-08-26T05:24:10;6.60;;;3.20;;
28848;SDS011;15981;43.292;-2.888;2022-08-26T05:26:36;5.50;;;3.30;;
28848;SDS011;15981;43.292;-2.888;2022-08-26T05:29:02;4.63;;;3.20;;
28848;SDS011;15981;43.292;-2.888;2022-08-26T05:31:29;5.83;;;3.43;;
28848;SDS011;15981;43.292;-2.888;2022-08-26T05:33:56;5.55;;;3.55;;
28848;SDS011;15981;43.292;-2.888;2022-08-26T05:36:23;6.07;;;3.33;;
28848;SDS011;15981;43.292;-2.888;2022-08-26T05:38:49;7.05;;;3.60;;
28848;SDS011;15981;43.292;-2.888;2022-08-26T05:41:16;5.95;;;3.42;;
28848;SDS011;15981;43.292;-2.888;2022-08-26T05:43:42;5.90;;;3.22;;
28848;SDS011;15981;43.292;-2.888;2022-08-26T05:46:08;5.18;;;3.30;;
28848;SDS011;15981;43.292;-2.888;2022-08-26T05:48:34;5.03;;;2.97;;
28848;SDS011;15981;43.292;-2.888;2022-08-26T05:51:01;7.22;;;3.35;;
28848;SDS011;15981;43.292;-2.888;2022-08-26T05:53:27;5.63;;;2.90;;
28848;SDS011;15981;43.292;-2.888;2022-08-26T05:55:53;5.53;;;2.80;;
28848;SDS011;15981;43.292;-2.888;2022-08-26T05:58:20;5.00;;;3.15;;
28848;SDS011;15981;43.292;-2.888;2022-08-26T06:01:03;5.68;;;3.00;;
28848;SDS011;15981;43.292;-2.888;2022-08-26T06:03:29;4.93;;;2.97;;
28848;SDS011;15981;43.292;-2.888;2022-08-26T06:05:56;5.18;;;2.72;;
28848;SDS011;15981;43.292;-2.888;2022-08-26T06:08:22;5.22;;;2.63;;
28848;SDS011;15981;43.292;-2.888;2022-08-26T06:10:51;6.15;;;3.28;;
28848;SDS011;15981;43.292;-2.888;2022-08-26T06:13:18;3.97;;;2.90;;
28848;SDS011;15981;43.292;-2.888;2022-08-26T06:15:45;6.53;;;3.20;;
28848;SDS011;15981;43.292;-2.888;2022-08-26T06:18:11;5.07;;;3.30;;
28848;SDS011;15981;43.292;-2.888;2022-08-26T06:20:39;5.93;;;3.10;;
28848;SDS011;15981;43.292;-2.888;2022-08-26T06:23:11;5.70;;;3.55;;
28848;SDS011;15981;43.292;-2.888;2022-08-26T06:25:55;5.43;;;3.08;;
28848;SDS011;15981;43.292;-2.888;2022-08-26T06:28:21;11.97;;;4.67;;
28848;SDS011;15981;43.292;-2.888;2022-08-26T06:30:48;19.27;;;7.70;;
28848;SDS011;15981;43.292;-2.888;2022-08-26T06:33:14;6.30;;;2.97;;
28848;SDS011;15981;43.292;-2.888;2022-08-26T06:35:40;12.68;;;5.50;;
28848;SDS011;15981;43.292;-2.888;2022-08-26T06:38:07;9.50;;;4.68;;
28848;SDS011;15981;43.292;-2.888;2022-08-26T06:40:39;12.98;;;5.55;;
28848;SDS011;15981;43.292;-2.888;2022-08-26T06:43:05;6.35;;;3.30;;
28848;SDS011;15981;43.292;-2.888;2022-08-26T06:45:30;7.03;;;3.40;;
28848;SDS011;15981;43.292;-2.888;2022-08-26T06:47:57;5.47;;;3.15;;
28848;SDS011;15981;43.292;-2.888;2022-08-26T06:50:23;6.35;;;3.40;;
28848;SDS011;15981;43.292;-2.888;2022-08-26T06:52:49;8.17;;;3.20;;
28848;SDS011;15981;43.292;-2.888;2022-08-26T06:55:14;5.43;;;2.92;;
28848;SDS011;15981;43.292;-2.888;2022-08-26T06:57:40;6.13;;;2.90;;
28848;SDS011;15981;43.292;-2.888;2022-08-26T07:00:06;5.70;;;2.95;;
28848;SDS011;15981;43.292;-2.888;2022-08-26T07:02:36;4.90;;;2.67;;
28848;SDS011;15981;43.292;-2.888;2022-08-26T07:05:02;4.10;;;2.53;;
28848;SDS011;15981;43.292;-2.888;2022-08-26T07:07:27;5.78;;;2.97;;
28848;SDS011;15981;43.292;-2.888;2022-08-26T07:09:53;6.10;;;2.90;;
28848;SDS011;15981;43.292;-2.888;2022-08-26T07:12:19;5.20;;;2.70;;
28848;SDS011;15981;43.292;-2.888;2022-08-26T07:14:45;5.47;;;2.67;;
28848;SDS011;15981;43.292;-2.888;2022-08-26T07:17:11;5.07;;;3.05;;
28848;SDS011;15981;43.292;-2.888;2022-08-26T07:19:36;7.17;;;2.77;;
28848;SDS011;15981;43.292;-2.888;2022-08-26T07:22:04;5.88;;;2.60;;
28848;SDS011;15981;43.292;-2.888;2022-08-26T07:24:31;5.90;;;2.75;;
28848;SDS011;15981;43.292;-2.888;2022-08-26T07:27:00;4.20;;;2.40;;
28848;SDS011;15981;43.292;-2.888;2022-08-26T07:29:26;5.67;;;2.80;;
28848;SDS011;15981;43.292;-2.888;2022-08-26T07:31:53;4.57;;;2.30;;
28848;SDS011;15981;43.292;-2.888;2022-08-26T07:34:19;5.07;;;2.78;;
28848;SDS011;15981;43.292;-2.888;2022-08-26T07:36:46;4.13;;;2.10;;
28848;SDS011;15981;43.292;-2.888;2022-08-26T07:39:11;5.32;;;2.88;;
28848;SDS011;15981;43.292;-2.888;2022-08-26T07:41:37;3.97;;;2.53;;
28848;SDS011;15981;43.292;-2.888;2022-08-26T07:44:03;5.90;;;2.75;;
28848;SDS011;15981;43.292;-2.888;2022-08-26T07:46:29;4.18;;;2.78;;
28848;SDS011;15981;43.292;-2.888;2022-08-26T07:48:54;6.53;;;2.90;;
28848;SDS011;15981;43.292;-2.888;2022-08-26T07:51:21;4.32;;;2.90;;
28848;SDS011;15981;43.292;-2.888;2022-08-26T07:53:47;5.45;;;2.58;;
28848;SDS011;15981;43.292;-2.888;2022-08-26T07:56:13;5.35;;;2.65;;
28848;SDS011;15981;43.292;-2.888;2022-08-26T07:58:39;6.35;;;2.95;;
28848;SDS011;15981;43.292;-2.888;2022-08-26T08:01:05;7.03;;;2.90;;
28848;SDS011;15981;43.292;-2.888;2022-08-26T08:03:31;7.72;;;2.80;;
28848;SDS011;15981;43.292;-2.888;2022-08-26T08:05:57;6.88;;;3.10;;
28848;SDS011;15981;43.292;-2.888;2022-08-26T08:08:23;7.83;;;3.57;;
28848;SDS011;15981;43.292;-2.888;2022-08-26T08:10:49;6.38;;;2.97;;
28848;SDS011;15981;43.292;-2.888;2022-08-26T08:13:15;7.70;;;3.00;;
28848;SDS011;15981;43.292;-2.888;2022-08-26T08:15:41;7.23;;;2.80;;
28848;SDS011;15981;43.292;-2.888;2022-08-26T08:18:06;8.35;;;3.30;;
28848;SDS011;15981;43.292;-2.888;2022-08-26T08:20:32;6.63;;;2.80;;
28848;SDS011;15981;43.292;-2.888;2022-08-26T08:22:59;6.77;;;3.00;;
28848;SDS011;15981;43.292;-2.888;2022-08-26T08:25:35;6.08;;;3.12;;
28848;SDS011;15981;43.292;-2.888;2022-08-26T08:28:01;6.10;;;3.10;;
28848;SDS011;15981;43.292;-2.888;2022-08-26T08:30:27;9.40;;;3.20;;
28848;SDS011;15981;43.292;-2.888;2022-08-26T08:32:53;6.68;;;2.72;;
28848;SDS011;15981;43.292;-2.888;2022-08-26T08:35:19;7.97;;;2.70;;
28848;SDS011;15981;43.292;-2.888;2022-08-26T08:37:49;5.28;;;2.50;;
28848;SDS011;15981;43.292;-2.888;2022-08-26T08:40:19;5.60;;;2.50;;
28848;SDS011;15981;43.292;-2.888;2022-08-26T08:42:56;5.97;;;2.55;;
28848;SDS011;15981;43.292;-2.888;2022-08-26T08:45:31;5.93;;;2.40;;
28848;SDS011;15981;43.292;-2.888;2022-08-26T08:47:58;7.20;;;2.50;;
28848;SDS011;15981;43.292;-2.888;2022-08-26T08:50:27;6.85;;;2.45;;
28848;SDS011;15981;43.292;-2.888;2022-08-26T08:53:07;4.70;;;2.17;;
28848;SDS011;15981;43.292;-2.888;2022-08-26T08:55:37;5.47;;;2.15;;
28848;SDS011;15981;43.292;-2.888;2022-08-26T08:58:06;7.10;;;1.85;;
28848;SDS011;15981;43.292;-2.888;2022-08-26T09:01:08;6.83;;;1.90;;
28848;SDS011;15981;43.292;-2.888;2022-08-26T09:06:01;6.63;;;1.73;;
28848;SDS011;15981;43.292;-2.888;2022-08-26T09:08:29;6.55;;;1.90;;
28848;SDS011;15981;43.292;-2.888;2022-08-26T09:10:56;10.65;;;3.33;;
28848;SDS011;15981;43.292;-2.888;2022-08-26T09:13:24;6.60;;;2.42;;
28848;SDS011;15981;43.292;-2.888;2022-08-26T09:15:56;6.45;;;2.22;;
28848;SDS011;15981;43.292;-2.888;2022-08-26T09:23:21;4.87;;;1.73;;
28848;SDS011;15981;43.292;-2.888;2022-08-26T09:25:51;4.55;;;1.80;;
28848;SDS011;15981;43.292;-2.888;2022-08-26T09:28:18;6.97;;;1.55;;
28848;SDS011;15981;43.292;-2.888;2022-08-26T09:30:45;5.15;;;1.40;;
28848;SDS011;15981;43.292;-2.888;2022-08-26T09:33:15;4.80;;;1.50;;
28848;SDS011;15981;43.292;-2.888;2022-08-26T18:41:27;3.45;;;1.33;;
28848;SDS011;15981;43.292;-2.888;2022-08-26T18:43:53;4.55;;;1.50;;
28848;SDS011;15981;43.292;-2.888;2022-08-26T18:46:20;2.58;;;1.15;;
28848;SDS011;15981;43.292;-2.888;2022-08-26T18:48:46;3.08;;;1.52;;
28848;SDS011;15981;43.292;-2.888;2022-08-26T18:51:19;3.97;;;1.45;;
28848;SDS011;15981;43.292;-2.888;2022-08-26T18:53:45;3.70;;;1.60;;
28848;SDS011;15981;43.292;-2.888;2022-08-26T18:56:10;4.93;;;1.20;;
28848;SDS011;15981;43.292;-2.888;2022-08-26T18:58:36;2.83;;;1.40;;
28848;SDS011;15981;43.292;-2.888;2022-08-26T19:01:02;3.10;;;1.95;;
28848;SDS011;15981;43.292;-2.888;2022-08-26T19:03:28;2.60;;;1.58;;
28848;SDS011;15981;43.292;-2.888;2022-08-26T19:05:54;3.63;;;1.55;;
28848;SDS011;15981;43.292;-2.888;2022-08-26T19:08:19;4.05;;;1.65;;
28848;SDS011;15981;43.292;-2.888;2022-08-26T19:10:45;5.03;;;1.60;;
28848;SDS011;15981;43.292;-2.888;2022-08-26T19:13:11;4.10;;;1.70;;
28848;SDS011;15981;43.292;-2.888;2022-08-26T19:15:38;3.22;;;1.55;;
28848;SDS011;15981;43.292;-2.888;2022-08-26T19:18:05;3.28;;;1.35;;
28848;SDS011;15981;43.292;-2.888;2022-08-26T19:20:31;2.47;;;1.30;;
28848;SDS011;15981;43.292;-2.888;2022-08-26T19:22:57;3.85;;;1.50;;
28848;SDS011;15981;43.292;-2.888;2022-08-26T19:25:23;2.65;;;1.30;;
28848;SDS011;15981;43.292;-2.888;2022-08-26T19:27:48;2.88;;;1.38;;
28848;SDS011;15981;43.292;-2.888;2022-08-26T19:30:14;3.35;;;1.27;;
28848;SDS011;15981;43.292;-2.888;2022-08-26T19:32:40;4.03;;;1.50;;
28848;SDS011;15981;43.292;-2.888;2022-08-26T19:35:06;3.35;;;1.48;;
28848;SDS011;15981;43.292;-2.888;2022-08-26T19:37:33;1.50;;;1.30;;
28848;SDS011;15981;43.292;-2.888;2022-08-26T19:39:58;4.28;;;1.88;;
28848;SDS011;15981;43.292;-2.888;2022-08-26T19:42:24;1.92;;;1.13;;
28848;SDS011;15981;43.292;-2.888;2022-08-26T19:44:50;1.73;;;1.40;;
28848;SDS011;15981;43.292;-2.888;2022-08-26T19:47:37;3.55;;;1.65;;
28848;SDS011;15981;43.292;-2.888;2022-08-26T19:50:05;3.25;;;1.20;;
28848;SDS011;15981;43.292;-2.888;2022-08-26T19:52:31;3.40;;;1.60;;
28848;SDS011;15981;43.292;-2.888;2022-08-26T19:54:57;3.38;;;1.20;;
28848;SDS011;15981;43.292;-2.888;2022-08-26T19:57:23;2.42;;;1.30;;
28848;SDS011;15981;43.292;-2.888;2022-08-26T19:59:49;2.88;;;1.40;;
28848;SDS011;15981;43.292;-2.888;2022-08-26T20:02:14;3.38;;;1.33;;
28848;SDS011;15981;43.292;-2.888;2022-08-26T20:04:41;7.45;;;1.92;;
28848;SDS011;15981;43.292;-2.888;2022-08-26T20:07:07;4.63;;;2.08;;
28848;SDS011;15981;43.292;-2.888;2022-08-26T20:09:33;5.57;;;2.70;;
28848;SDS011;15981;43.292;-2.888;2022-08-26T20:11:59;5.05;;;2.10;;
28848;SDS011;15981;43.292;-2.888;2022-08-26T20:14:26;7.50;;;3.30;;
28848;SDS011;15981;43.292;-2.888;2022-08-26T20:16:52;7.00;;;3.00;;
28848;SDS011;15981;43.292;-2.888;2022-08-26T20:19:18;9.90;;;3.58;;
28848;SDS011;15981;43.292;-2.888;2022-08-26T20:22:02;8.68;;;4.15;;
28848;SDS011;15981;43.292;-2.888;2022-08-26T20:24:28;11.73;;;4.10;;
28848;SDS011;15981;43.292;-2.888;2022-08-26T20:26:54;11.95;;;5.57;;
28848;SDS011;15981;43.292;-2.888;2022-08-26T20:29:20;14.70;;;5.82;;
28848;SDS011;15981;43.292;-2.888;2022-08-26T20:31:46;16.73;;;6.88;;
28848;SDS011;15981;43.292;-2.888;2022-08-26T20:34:13;13.50;;;6.03;;
28848;SDS011;15981;43.292;-2.888;2022-08-26T20:36:39;10.32;;;4.63;;
28848;SDS011;15981;43.292;-2.888;2022-08-26T20:39:05;6.13;;;2.90;;
28848;SDS011;15981;43.292;-2.888;2022-08-26T20:41:31;4.38;;;2.30;;
28848;SDS011;15981;43.292;-2.888;2022-08-26T20:43:57;3.95;;;2.03;;
28848;SDS011;15981;43.292;-2.888;2022-08-26T20:46:24;9.15;;;3.13;;
28848;SDS011;15981;43.292;-2.888;2022-08-26T20:48:49;4.95;;;3.20;;
28848;SDS011;15981;43.292;-2.888;2022-08-26T20:51:16;4.50;;;2.45;;
28848;SDS011;15981;43.292;-2.888;2022-08-26T20:53:42;6.05;;;2.10;;
28848;SDS011;15981;43.292;-2.888;2022-08-26T20:56:09;4.25;;;1.85;;
28848;SDS011;15981;43.292;-2.888;2022-08-26T20:58:35;5.28;;;2.10;;
28848;SDS011;15981;43.292;-2.888;2022-08-26T21:01:01;5.22;;;2.20;;
28848;SDS011;15981;43.292;-2.888;2022-08-26T21:03:27;4.70;;;2.08;;
28848;SDS011;15981;43.292;-2.888;2022-08-26T21:05:53;4.35;;;2.05;;
28848;SDS011;15981;43.292;-2.888;2022-08-26T21:08:19;6.55;;;2.28;;
28848;SDS011;15981;43.292;-2.888;2022-08-26T21:10:45;3.95;;;2.08;;
28848;SDS011;15981;43.292;-2.888;2022-08-26T21:13:11;5.50;;;2.45;;
28848;SDS011;15981;43.292;-2.888;2022-08-26T21:15:37;7.88;;;2.20;;
28848;SDS011;15981;43.292;-2.888;2022-08-26T21:18:03;4.38;;;2.08;;
28848;SDS011;15981;43.292;-2.888;2022-08-26T21:20:29;3.08;;;1.70;;
28848;SDS011;15981;43.292;-2.888;2022-08-26T21:22:55;4.90;;;2.10;;
28848;SDS011;15981;43.292;-2.888;2022-08-26T21:25:20;4.22;;;1.95;;
28848;SDS011;15981;43.292;-2.888;2022-08-26T21:27:46;7.78;;;2.45;;
28848;SDS011;15981;43.292;-2.888;2022-08-26T21:30:13;5.72;;;2.28;;
28848;SDS011;15981;43.292;-2.888;2022-08-26T21:32:39;4.75;;;1.80;;
28848;SDS011;15981;43.292;-2.888;2022-08-26T21:35:05;5.28;;;2.25;;
28848;SDS011;15981;43.292;-2.888;2022-08-26T21:37:30;3.72;;;1.58;;
28848;SDS011;15981;43.292;-2.888;2022-08-26T21:39:57;2.45;;;1.63;;
28848;SDS011;15981;43.292;-2.888;2022-08-26T21:42:23;3.28;;;1.70;;
28848;SDS011;15981;43.292;-2.888;2022-08-26T21:44:50;3.42;;;1.40;;
28848;SDS011;15981;43.292;-2.888;2022-08-26T21:47:16;4.78;;;2.00;;
28848;SDS011;15981;43.292;-2.888;2022-08-26T21:49:42;6.30;;;1.60;;
28848;SDS011;15981;43.292;-2.888;2022-08-26T21:52:09;4.90;;;1.90;;
28848;SDS011;15981;43.292;-2.888;2022-08-26T21:54:35;3.47;;;1.77;;
28848;SDS011;15981;43.292;-2.888;2022-08-26T21:57:01;5.50;;;2.13;;
28848;SDS011;15981;43.292;-2.888;2022-08-26T21:59:26;3.00;;;1.45;;
28848;SDS011;15981;43.292;-2.888;2022-08-26T22:01:52;5.18;;;1.90;;
28848;SDS011;15981;43.292;-2.888;2022-08-26T22:04:19;4.88;;;1.65;;
28848;SDS011;15981;43.292;-2.888;2022-08-26T22:06:49;3.05;;;1.40;;
28848;SDS011;15981;43.292;-2.888;2022-08-26T22:09:16;3.85;;;1.60;;
28848;SDS011;15981;43.292;-2.888;2022-08-26T22:11:42;2.78;;;1.60;;
28848;SDS011;15981;43.292;-2.888;2022-08-26T22:14:08;4.22;;;1.65;;
28848;SDS011;15981;43.292;-2.888;2022-08-26T22:16:34;3.85;;;1.85;;
28848;SDS011;15981;43.292;-2.888;2022-08-26T22:19:00;4.13;;;1.75;;
28848;SDS011;15981;43.292;-2.888;2022-08-26T22:21:26;3.30;;;2.00;;
28848;SDS011;15981;43.292;-2.888;2022-08-26T22:23:55;5.93;;;2.30;;
28848;SDS011;15981;43.292;-2.888;2022-08-26T22:26:22;3.95;;;2.30;;
28848;SDS011;15981;43.292;-2.888;2022-08-26T22:28:48;3.37;;;1.83;;
28848;SDS011;15981;43.292;-2.888;2022-08-26T22:31:14;3.50;;;2.22;;
28848;SDS011;15981;43.292;-2.888;2022-08-26T22:33:41;4.88;;;2.70;;
28848;SDS011;15981;43.292;-2.888;2022-08-26T22:36:14;4.78;;;2.30;;
28848;SDS011;15981;43.292;-2.888;2022-08-26T22:38:40;3.95;;;2.05;;
28848;SDS011;15981;43.292;-2.888;2022-08-26T22:41:06;5.05;;;2.03;;
28848;SDS011;15981;43.292;-2.888;2022-08-26T22:43:32;5.00;;;2.25;;
28848;SDS011;15981;43.292;-2.888;2022-08-26T22:45:58;3.60;;;2.35;;
28848;SDS011;15981;43.292;-2.888;2022-08-26T22:48:24;4.10;;;1.77;;
28848;SDS011;15981;43.292;-2.888;2022-08-26T22:50:51;3.60;;;1.92;;
28848;SDS011;15981;43.292;-2.888;2022-08-26T22:53:17;4.75;;;2.08;;
28848;SDS011;15981;43.292;-2.888;2022-08-26T22:55:43;3.72;;;2.22;;
28848;SDS011;15981;43.292;-2.888;2022-08-26T22:58:10;4.90;;;2.58;;
28848;SDS011;15981;43.292;-2.888;2022-08-26T23:00:36;4.40;;;2.30;;
28848;SDS011;15981;43.292;-2.888;2022-08-26T23:03:02;3.67;;;2.28;;
28848;SDS011;15981;43.292;-2.888;2022-08-26T23:05:28;5.00;;;2.15;;
28848;SDS011;15981;43.292;-2.888;2022-08-26T23:07:55;2.38;;;1.90;;
28848;SDS011;15981;43.292;-2.888;2022-08-26T23:10:21;5.10;;;1.92;;
28848;SDS011;15981;43.292;-2.888;2022-08-26T23:12:47;3.53;;;1.80;;
28848;SDS011;15981;43.292;-2.888;2022-08-26T23:15:13;4.28;;;2.08;;
28848;SDS011;15981;43.292;-2.888;2022-08-26T23:17:39;3.88;;;2.00;;
28848;SDS011;15981;43.292;-2.888;2022-08-26T23:20:06;3.85;;;1.85;;
28848;SDS011;15981;43.292;-2.888;2022-08-26T23:22:33;2.50;;;1.70;;
28848;SDS011;15981;43.292;-2.888;2022-08-26T23:24:59;4.75;;;1.90;;
28848;SDS011;15981;43.292;-2.888;2022-08-26T23:27:25;1.90;;;1.50;;
28848;SDS011;15981;43.292;-2.888;2022-08-26T23:29:51;2.80;;;1.73;;
28848;SDS011;15981;43.292;-2.888;2022-08-26T23:32:17;4.40;;;2.20;;
28848;SDS011;15981;43.292;-2.888;2022-08-26T23:34:43;3.67;;;2.10;;
28848;SDS011;15981;43.292;-2.888;2022-08-26T23:37:22;5.05;;;2.28;;
28848;SDS011;15981;43.292;-2.888;2022-08-26T23:39:49;4.65;;;2.60;;
28848;SDS011;15981;43.292;-2.888;2022-08-26T23:42:15;6.75;;;2.47;;
28848;SDS011;15981;43.292;-2.888;2022-08-26T23:44:41;5.70;;;2.30;;
28848;SDS011;15981;43.292;-2.888;2022-08-26T23:47:07;4.22;;;1.98;;
28848;SDS011;15981;43.292;-2.888;2022-08-26T23:49:33;3.22;;;2.13;;
28848;SDS011;15981;43.292;-2.888;2022-08-26T23:51:59;4.15;;;2.50;;